createdAt,value
2023-05-01T00:00:52.523Z,7.200
2023-05-01T00:02:53.621Z,8.400
2023-05-01T00:03:54.193Z,7.500
2023-05-01T00:04:53.276Z,7.300
2023-05-01T00:05:52.477Z,8.100
2023-05-01T00:06:52.951Z,6.700
2023-05-01T00:07:53.383Z,7.300
2023-05-01T00:08:52.519Z,7.100
2023-05-01T00:09:52.670Z,7.100
2023-05-01T00:10:53.064Z,7.200
2023-05-01T00:11:53.201Z,6.900
2023-05-01T00:12:52.334Z,7.200
2023-05-01T00:13:52.627Z,7.200
2023-05-01T00:14:52.815Z,7.600
2023-05-01T00:15:53.041Z,7.100
2023-05-01T00:16:53.736Z,7.000
2023-05-01T00:17:53.210Z,7.200
2023-05-01T00:18:52.486Z,7.000
2023-05-01T00:19:52.572Z,6.500
2023-05-01T00:20:53.116Z,6.400
2023-05-01T00:21:53.283Z,6.700
2023-05-01T00:22:52.433Z,7.400
2023-05-01T00:23:52.581Z,6.700
2023-05-01T00:24:52.699Z,6.600
2023-05-01T00:25:52.776Z,6.700
2023-05-01T00:26:52.948Z,6.800
2023-05-01T00:27:53.128Z,7.400
2023-05-01T00:28:53.398Z,8.300
2023-05-01T00:29:52.523Z,7.800
2023-05-01T00:30:53.597Z,6.900
2023-05-01T00:31:52.861Z,7.900
2023-05-01T00:32:53.348Z,7.700
2023-05-01T00:33:52.568Z,6.600
2023-05-01T00:34:52.739Z,7.300
2023-05-01T00:35:52.980Z,7.000
2023-05-01T00:36:53.157Z,6.700
2023-05-01T00:37:52.259Z,7.000
2023-05-01T00:38:52.416Z,6.600
2023-05-01T00:39:52.531Z,7.600
2023-05-01T00:40:53.187Z,6.600
2023-05-01T00:41:52.255Z,7.300
2023-05-01T00:42:52.489Z,6.800
2023-05-01T00:43:52.676Z,6.100
2023-05-01T00:44:52.777Z,6.600
2023-05-01T00:45:53.074Z,6.800
2023-05-01T00:46:52.440Z,6.700
2023-05-01T00:47:52.712Z,6.800
2023-05-01T00:48:53.075Z,6.000
2023-05-01T00:49:53.282Z,6.700
2023-05-01T00:50:52.748Z,6.400
2023-05-01T00:51:52.817Z,7.300
2023-05-01T00:52:53.028Z,6.800
2023-05-01T00:53:53.170Z,10.500
2023-05-01T00:54:52.225Z,7.100
2023-05-01T00:55:52.385Z,7.300
2023-05-01T00:56:52.559Z,7.700
2023-05-01T00:57:52.768Z,8.500
2023-05-01T00:58:52.860Z,6.800
2023-05-01T00:59:53.110Z,6.200
2023-05-01T01:00:52.806Z,6.800
2023-05-01T01:01:56.434Z,5.800
2023-05-01T01:02:52.769Z,6.900
2023-05-01T01:03:52.940Z,7.000
2023-05-01T01:04:53.502Z,6.800
2023-05-01T01:05:52.675Z,6.800
2023-05-01T01:06:52.947Z,6.600
2023-05-01T01:07:53.084Z,6.100
2023-05-01T01:08:53.386Z,6.000
2023-05-01T01:09:52.519Z,5.900
2023-05-01T01:10:53.257Z,6.600
2023-05-01T01:11:52.372Z,6.200
2023-05-01T01:12:52.505Z,6.100
2023-05-01T01:13:52.673Z,6.400
2023-05-01T01:14:52.852Z,6.400
2023-05-01T01:15:53.059Z,6.600
2023-05-01T01:16:53.625Z,6.600
2023-05-01T01:17:53.119Z,7.800
2023-05-01T01:18:52.430Z,6.000
2023-05-01T01:19:52.483Z,6.500
2023-05-01T01:20:53.039Z,6.600
2023-05-01T01:21:53.200Z,6.200
2023-05-01T01:22:52.222Z,6.500
2023-05-01T01:23:52.325Z,6.000
2023-05-01T01:24:52.696Z,6.500
2023-05-01T01:25:53.076Z,6.300
2023-05-01T01:26:52.225Z,6.200
2023-05-01T01:27:52.344Z,5.900
2023-05-01T01:28:52.482Z,6.600
2023-05-01T01:29:52.683Z,7.700
2023-05-01T01:30:53.295Z,7.100
2023-05-01T01:31:52.648Z,6.500
2023-05-01T01:32:52.986Z,7.100
2023-05-01T01:33:53.296Z,7.400
2023-05-01T01:34:52.468Z,6.200
2023-05-01T01:35:52.644Z,6.600
2023-05-01T01:36:52.827Z,7.300
2023-05-01T01:37:53.087Z,7.300
2023-05-01T01:38:53.367Z,6.500
2023-05-01T01:39:52.567Z,6.600
2023-05-01T01:40:53.287Z,6.600
2023-05-01T01:41:52.418Z,6.500
2023-05-01T01:42:52.598Z,6.400
2023-05-01T01:43:52.772Z,6.200
2023-05-01T01:44:52.993Z,7.100
2023-05-01T01:45:53.372Z,7.100
2023-05-01T01:46:52.722Z,7.200
2023-05-01T01:47:53.083Z,7.200
2023-05-01T01:48:52.288Z,6.800
2023-05-01T01:49:52.404Z,7.600
2023-05-01T01:50:52.964Z,7.300
2023-05-01T01:51:53.084Z,7.600
2023-05-01T01:52:53.195Z,7.000
2023-05-01T01:53:52.382Z,7.900
2023-05-01T01:54:52.546Z,7.000
2023-05-01T01:55:52.696Z,7.200
2023-05-01T01:56:52.848Z,7.500
2023-05-01T01:57:53.261Z,7.100
2023-05-01T01:58:52.360Z,7.000
2023-05-01T01:59:52.540Z,7.900
2023-05-01T02:00:52.827Z,7.400
2023-05-01T02:01:53.090Z,7.900
2023-05-01T02:02:52.825Z,7.300
2023-05-01T02:03:53.965Z,7.300
2023-05-01T02:04:52.341Z,8.300
2023-05-01T02:05:52.518Z,6.400
2023-05-01T02:06:52.954Z,8.200
2023-05-01T02:07:53.179Z,7.700
2023-05-01T02:08:52.315Z,7.900
2023-05-01T02:09:52.451Z,7.500
2023-05-01T02:10:52.695Z,7.600
2023-05-01T02:11:52.843Z,7.100
2023-05-01T02:12:52.996Z,8.100
2023-05-01T02:13:53.094Z,7.500
2023-05-01T02:14:53.331Z,8.400
2023-05-01T02:15:52.458Z,8.500
2023-05-01T02:16:53.068Z,8.300
2023-05-01T02:17:53.431Z,8.300
2023-05-01T02:18:52.648Z,8.900
2023-05-01T02:19:52.845Z,8.400
2023-05-01T02:20:52.324Z,8.000
2023-05-01T02:21:52.452Z,8.100
2023-05-01T02:22:52.594Z,8.400
2023-05-01T02:23:52.721Z,7.700
2023-05-01T02:24:52.842Z,8.000
2023-05-01T02:25:53.020Z,9.600
2023-05-01T02:26:53.156Z,8.300
2023-05-01T02:27:52.234Z,8.500
2023-05-01T02:28:52.518Z,8.700
2023-05-01T02:29:52.640Z,8.500
2023-05-01T02:30:52.765Z,9.400
2023-05-01T02:31:53.498Z,8.200
2023-05-01T02:32:52.763Z,8.900
2023-05-01T02:33:52.956Z,9.200
2023-05-01T02:34:53.170Z,8.900
2023-05-01T02:35:52.275Z,9.200
2023-05-01T02:36:52.399Z,9.000
2023-05-01T02:37:52.591Z,10.000
2023-05-01T02:38:52.800Z,9.300
2023-05-01T02:39:52.994Z,8.900
2023-05-01T02:40:52.416Z,8.400
2023-05-01T02:41:52.566Z,8.800
2023-05-01T02:42:52.708Z,9.200
2023-05-01T02:43:52.830Z,10.200
2023-05-01T02:44:53.045Z,8.600
2023-05-01T02:45:53.459Z,9.700
2023-05-01T02:46:52.909Z,9.300
2023-05-01T02:47:53.494Z,10.100
2023-05-01T02:48:52.741Z,10.500
2023-05-01T02:49:52.893Z,9.400
2023-05-01T02:50:52.321Z,9.300
2023-05-01T02:51:52.471Z,9.500
2023-05-01T02:52:52.776Z,11.200
2023-05-01T02:53:52.896Z,9.900
2023-05-01T02:54:53.007Z,10.300
2023-05-01T02:55:53.156Z,8.900
2023-05-01T02:56:52.280Z,9.700
2023-05-01T02:57:52.493Z,9.300
2023-05-01T02:58:52.621Z,9.300
2023-05-01T02:59:52.789Z,9.700
2023-05-01T03:00:53.320Z,9.200
2023-05-01T03:01:52.717Z,9.800
2023-05-01T03:02:53.054Z,10.100
2023-05-01T03:03:53.628Z,9.000
2023-05-01T03:04:53.227Z,9.700
2023-05-01T03:05:52.316Z,9.200
2023-05-01T03:06:52.791Z,9.600
2023-05-01T03:07:52.979Z,9.500
2023-05-01T03:08:53.106Z,10.100
2023-05-01T03:09:53.730Z,9.300
2023-05-01T03:10:52.344Z,9.300
2023-05-01T03:11:52.405Z,9.600
2023-05-01T03:12:52.536Z,11.300
2023-05-01T03:13:52.769Z,9.600
2023-05-01T03:14:52.839Z,9.300
2023-05-01T03:15:53.070Z,9.500
2023-05-01T03:16:52.543Z,9.000
2023-05-01T03:17:53.216Z,10.300
2023-05-01T03:18:52.401Z,10.200
2023-05-01T03:19:52.461Z,10.200
2023-05-01T03:20:52.885Z,11.100
2023-05-01T03:21:52.990Z,10.300
2023-05-01T03:22:53.151Z,9.900
2023-05-01T03:23:53.324Z,9.900
2023-05-01T03:24:52.496Z,9.100
2023-05-01T03:25:52.617Z,10.000
2023-05-01T03:26:52.766Z,9.400
2023-05-01T03:27:55.309Z,9.100
2023-05-01T03:28:52.522Z,10.100
2023-05-01T03:29:52.772Z,9.700
2023-05-01T03:30:52.931Z,9.500
2023-05-01T03:31:53.158Z,9.800
2023-05-01T03:32:52.488Z,9.700
2023-05-01T03:33:52.642Z,9.600
2023-05-01T03:34:52.831Z,10.400
2023-05-01T03:35:53.394Z,11.200
2023-05-01T03:36:52.626Z,10.300
2023-05-01T03:37:53.026Z,9.900
2023-05-01T03:38:53.195Z,10.600
2023-05-01T03:39:52.264Z,9.800
2023-05-01T03:40:52.660Z,9.300
2023-05-01T03:41:52.889Z,10.200
2023-05-01T03:42:53.046Z,10.300
2023-05-01T03:43:53.209Z,9.000
2023-05-01T03:44:52.365Z,9.800
2023-05-01T03:45:52.537Z,10.400
2023-05-01T03:46:53.271Z,10.300
2023-05-01T03:47:52.479Z,10.200
2023-05-01T03:48:52.747Z,9.900
2023-05-01T03:49:52.905Z,10.400
2023-05-01T03:50:52.251Z,10.400
2023-05-01T03:51:52.406Z,11.000
2023-05-01T03:52:52.541Z,10.800
2023-05-01T03:53:52.661Z,10.200
2023-05-01T03:54:52.845Z,10.300
2023-05-01T03:55:52.984Z,10.400
2023-05-01T03:56:53.128Z,9.700
2023-05-01T03:57:52.256Z,10.200
2023-05-01T03:58:52.400Z,10.800
2023-05-01T03:59:52.564Z,10.100
2023-05-01T04:00:52.268Z,10.900
2023-05-01T04:01:52.765Z,10.200
2023-05-01T04:02:53.785Z,11.500
2023-05-01T04:03:52.622Z,10.100
2023-05-01T04:04:53.432Z,10.700
2023-05-01T04:05:52.545Z,10.600
2023-05-01T04:06:52.988Z,10.100
2023-05-01T04:07:53.133Z,10.800
2023-05-01T04:08:53.238Z,9.600
2023-05-01T04:09:52.353Z,10.000
2023-05-01T04:10:52.678Z,9.500
2023-05-01T04:11:52.833Z,9.900
2023-05-01T04:12:52.983Z,10.400
2023-05-01T04:13:53.388Z,11.400
2023-05-01T04:14:52.436Z,11.000
2023-05-01T04:15:52.823Z,10.400
2023-05-01T04:16:53.557Z,10.200
2023-05-01T04:17:52.909Z,10.700
2023-05-01T04:18:53.160Z,10.800
2023-05-01T04:19:52.258Z,11.200
2023-05-01T04:20:52.864Z,9.900
2023-05-01T04:21:53.053Z,10.100
2023-05-01T04:22:53.284Z,10.000
2023-05-01T04:23:52.414Z,10.000
2023-05-01T04:24:52.529Z,10.400
2023-05-01T04:25:52.791Z,10.200
2023-05-01T04:26:52.905Z,9.900
2023-05-01T04:27:53.057Z,9.500
2023-05-01T04:28:53.180Z,9.800
2023-05-01T04:29:52.353Z,10.500
2023-05-01T04:30:52.851Z,10.500
2023-05-01T04:31:53.375Z,10.500
2023-05-01T04:32:52.754Z,10.800
2023-05-01T04:33:53.028Z,10.500
2023-05-01T04:34:53.142Z,10.000
2023-05-01T04:35:52.263Z,9.500
2023-05-01T04:36:52.337Z,10.300
2023-05-01T04:37:52.478Z,10.100
2023-05-01T04:38:52.752Z,9.700
2023-05-01T04:39:53.074Z,10.500
2023-05-01T04:40:52.671Z,9.100
2023-05-01T04:41:52.824Z,9.700
2023-05-01T04:42:52.881Z,9.500
2023-05-01T04:43:53.038Z,9.900
2023-05-01T04:44:53.256Z,10.500
2023-05-01T04:45:52.511Z,9.500
2023-05-01T04:46:53.082Z,10.600
2023-05-01T04:47:52.487Z,9.200
2023-05-01T04:48:52.858Z,10.000
2023-05-01T04:49:53.007Z,9.500
2023-05-01T04:50:52.693Z,10.000
2023-05-01T04:51:52.817Z,10.000
2023-05-01T04:52:52.971Z,10.400
2023-05-01T04:53:53.180Z,9.000
2023-05-01T04:54:52.309Z,9.500
2023-05-01T04:55:52.514Z,9.200
2023-05-01T04:56:52.683Z,8.600
2023-05-01T04:57:52.836Z,10.300
2023-05-01T04:58:53.052Z,10.000
2023-05-01T04:59:53.255Z,9.200
2023-05-01T05:00:52.807Z,9.000
2023-05-01T05:01:53.386Z,10.000
2023-05-01T05:02:53.220Z,9.800
2023-05-01T05:03:52.818Z,9.800
2023-05-01T05:04:52.307Z,9.300
2023-05-01T05:05:52.503Z,9.600
2023-05-01T05:06:53.091Z,9.400
2023-05-01T05:07:52.352Z,9.400
2023-05-01T05:08:52.508Z,10.200
2023-05-01T05:09:55.000Z,9.900
2023-05-01T05:10:52.533Z,9.200
2023-05-01T05:11:52.625Z,9.900
2023-05-01T05:12:52.772Z,9.500
2023-05-01T05:13:53.152Z,9.800
2023-05-01T05:14:52.293Z,9.600
2023-05-01T05:15:52.496Z,8.900
2023-05-01T05:16:53.281Z,10.000
2023-05-01T05:17:53.445Z,9.700
2023-05-01T05:18:52.511Z,10.800
2023-05-01T05:19:52.655Z,10.300
2023-05-01T05:20:53.155Z,9.400
2023-05-01T05:21:52.235Z,8.800
2023-05-01T05:22:52.410Z,9.700
2023-05-01T05:23:52.599Z,10.100
2023-05-01T05:24:52.962Z,9.100
2023-05-01T05:25:53.158Z,10.000
2023-05-01T05:26:52.264Z,10.100
2023-05-01T05:27:52.405Z,10.300
2023-05-01T05:28:52.501Z,9.500
2023-05-01T05:29:52.796Z,9.500
2023-05-01T05:30:52.276Z,10.100
2023-05-01T05:31:52.650Z,9.900
2023-05-01T05:32:53.217Z,9.100
2023-05-01T05:33:52.359Z,9.400
2023-05-01T05:34:52.584Z,10.200
2023-05-01T05:35:52.689Z,10.300
2023-05-01T05:36:52.869Z,9.900
2023-05-01T05:37:52.963Z,9.800
2023-05-01T05:38:53.134Z,10.000
2023-05-01T05:39:52.218Z,10.300
2023-05-01T05:40:52.579Z,10.500
2023-05-01T05:41:52.773Z,10.300
2023-05-01T05:42:52.940Z,9.500
2023-05-01T05:43:53.143Z,9.400
2023-05-01T05:44:52.556Z,10.000
2023-05-01T05:45:53.093Z,10.200
2023-05-01T05:46:52.520Z,10.300
2023-05-01T05:47:52.904Z,10.000
2023-05-01T05:48:53.298Z,10.600
2023-05-01T05:49:52.372Z,10.600
2023-05-01T05:50:52.882Z,10.600
2023-05-01T05:51:53.019Z,10.600
2023-05-01T05:52:53.097Z,9.800
2023-05-01T05:53:53.222Z,11.100
2023-05-01T05:54:52.359Z,10.900
2023-05-01T05:55:52.538Z,9.800
2023-05-01T05:56:52.666Z,10.800
2023-05-01T05:57:52.916Z,11.300
2023-05-01T05:58:53.035Z,11.200
2023-05-01T05:59:53.355Z,11.400
2023-05-01T06:00:52.784Z,10.900
2023-05-01T06:01:52.934Z,11.500
2023-05-01T06:02:53.607Z,11.900
2023-05-01T06:03:53.447Z,11.100
2023-05-01T06:04:52.669Z,11.000
2023-05-01T06:05:53.215Z,11.600
2023-05-01T06:06:52.646Z,11.200
2023-05-01T06:07:52.931Z,13.300
2023-05-01T06:08:53.107Z,12.000
2023-05-01T06:09:53.308Z,10.900
2023-05-01T06:10:52.752Z,10.500
2023-05-01T06:11:52.928Z,12.200
2023-05-01T06:13:13.829Z,11.500
2023-05-01T06:15:01.665Z,12.100
2023-05-01T06:16:02.063Z,11.800
2023-05-01T06:17:01.248Z,11.400
2023-05-01T06:18:01.497Z,11.900
2023-05-01T06:19:02.964Z,12.200
2023-05-01T06:20:02.051Z,12.300
2023-05-01T06:21:02.100Z,12.400
2023-05-01T06:22:02.261Z,13.600
2023-05-01T06:23:01.424Z,12.600
2023-05-01T06:24:01.677Z,12.600
2023-05-01T06:25:01.816Z,12.600
2023-05-01T06:26:01.928Z,12.700
2023-05-01T06:27:03.112Z,11.700
2023-05-01T06:29:01.301Z,12.400
2023-05-01T06:30:01.364Z,12.900
2023-05-01T06:31:01.545Z,13.500
2023-05-01T06:32:02.209Z,12.700
2023-05-01T06:33:01.523Z,12.400
2023-05-01T06:34:01.666Z,12.700
2023-05-01T06:35:01.907Z,12.400
2023-05-01T06:36:02.113Z,12.700
2023-05-01T06:37:02.260Z,12.200
2023-05-01T06:38:01.432Z,13.200
2023-05-01T06:39:01.535Z,12.000
2023-05-01T06:40:01.762Z,12.400
2023-05-01T06:41:01.919Z,12.700
2023-05-01T06:42:02.055Z,12.500
2023-05-01T06:43:02.239Z,12.300
2023-05-01T06:44:01.439Z,11.800
2023-05-01T06:45:01.646Z,14.000
2023-05-01T06:46:01.863Z,11.900
2023-05-01T06:47:02.333Z,11.300
2023-05-01T06:48:01.728Z,12.700
2023-05-01T06:49:01.952Z,12.400
2023-05-01T06:50:05.643Z,12.400
2023-05-01T06:52:01.381Z,12.300
2023-05-01T06:53:01.547Z,12.200
2023-05-01T06:54:01.784Z,11.500
2023-05-01T06:55:02.076Z,11.500
2023-05-01T06:56:02.288Z,12.900
2023-05-01T06:57:01.381Z,12.100
2023-05-01T06:58:12.493Z,11.500
2023-05-01T07:00:02.419Z,11.600
2023-05-01T07:01:02.967Z,12.200
2023-05-01T07:02:03.478Z,10.600
2023-05-01T07:03:03.191Z,11.100
2023-05-01T07:04:02.531Z,10.300
2023-05-01T07:05:02.840Z,10.900
2023-05-01T07:06:03.155Z,11.100
2023-05-01T07:07:02.622Z,11.000
2023-05-01T07:08:12.653Z,10.700
2023-05-01T07:10:03.018Z,11.100
2023-05-01T07:11:03.244Z,10.400
2023-05-01T07:12:02.363Z,10.400
2023-05-01T07:13:02.811Z,11.600
2023-05-01T07:14:03.094Z,11.600
2023-05-01T07:15:03.289Z,11.300
2023-05-01T07:16:02.826Z,12.300
2023-05-01T07:17:03.395Z,11.400
2023-05-01T07:18:02.869Z,11.700
2023-05-01T07:19:03.301Z,11.100
2023-05-01T07:20:02.595Z,12.200
2023-05-01T07:21:02.826Z,12.000
2023-05-01T07:22:03.091Z,12.200
2023-05-01T07:23:04.242Z,12.900
2023-05-01T07:24:02.539Z,12.500
2023-05-01T07:25:02.760Z,12.300
2023-05-01T07:26:03.006Z,13.000
2023-05-01T07:27:03.184Z,12.200
2023-05-01T07:28:02.366Z,12.800
2023-05-01T07:29:02.756Z,12.600
2023-05-01T07:30:02.877Z,11.900
2023-05-01T07:31:03.059Z,12.200
2023-05-01T07:32:03.573Z,12.500
2023-05-01T07:33:02.921Z,12.200
2023-05-01T07:34:03.223Z,11.700
2023-05-01T07:35:02.704Z,12.100
2023-05-01T07:36:02.955Z,12.600
2023-05-01T07:37:03.135Z,11.400
2023-05-01T07:38:02.303Z,12.000
2023-05-01T07:39:02.575Z,12.900
2023-05-01T07:40:02.790Z,11.900
2023-05-01T07:41:03.020Z,12.200
2023-05-01T07:42:03.237Z,11.100
2023-05-01T07:43:02.488Z,11.200
2023-05-01T07:44:02.884Z,11.600
2023-05-01T07:45:03.518Z,11.200
2023-05-01T07:46:02.756Z,11.300
2023-05-01T07:47:03.214Z,11.100
2023-05-01T07:48:02.506Z,12.700
2023-05-01T07:49:02.776Z,11.400
2023-05-01T07:50:03.090Z,11.700
2023-05-01T07:51:03.748Z,11.200
2023-05-01T07:52:02.946Z,11.000
2023-05-01T07:53:03.198Z,11.900
2023-05-01T07:54:02.304Z,11.800
2023-05-01T07:55:02.596Z,11.200
2023-05-01T07:56:02.881Z,11.300
2023-05-01T07:57:05.581Z,11.200
2023-05-01T08:00:03.083Z,11.400
2023-05-01T08:01:03.278Z,11.400
2023-05-01T08:02:02.683Z,11.300
2023-05-01T08:03:03.670Z,11.100
2023-05-01T08:04:06.977Z,11.000
2023-05-01T08:07:03.325Z,12.100
2023-05-01T08:08:02.501Z,11.400
2023-05-01T08:09:02.743Z,11.700
2023-05-01T08:10:03.432Z,10.700
2023-05-01T08:11:02.410Z,11.000
2023-05-01T08:12:02.644Z,10.800
2023-05-01T08:13:02.932Z,10.000
2023-05-01T08:14:03.080Z,10.600
2023-05-01T08:15:03.318Z,10.300
2023-05-01T08:16:02.669Z,10.900
2023-05-01T08:17:03.283Z,10.400
2023-05-01T08:18:02.672Z,10.600
2023-05-01T08:19:03.032Z,10.800
2023-05-01T08:20:03.248Z,10.100
2023-05-01T08:21:02.316Z,10.100
2023-05-01T08:22:02.517Z,10.400
2023-05-01T08:23:02.684Z,10.500
2023-05-01T08:24:02.875Z,10.200
2023-05-01T08:25:03.037Z,10.000
2023-05-01T08:26:03.174Z,10.000
2023-05-01T08:27:02.384Z,10.000
2023-05-01T08:28:02.547Z,9.700
2023-05-01T08:29:02.992Z,9.500
2023-05-01T08:30:03.156Z,9.900
2023-05-01T08:31:02.300Z,10.100
2023-05-01T08:32:02.962Z,9.700
2023-05-01T08:33:03.393Z,9.800
2023-05-01T08:34:02.700Z,10.000
2023-05-01T08:35:02.844Z,10.000
2023-05-01T08:36:03.032Z,10.000
2023-05-01T08:37:03.231Z,10.200
2023-05-01T08:38:02.429Z,10.200
2023-05-01T08:39:02.633Z,10.300
2023-05-01T08:40:02.843Z,10.400
2023-05-01T08:41:03.092Z,9.600
2023-05-01T08:42:03.295Z,10.500
2023-05-01T08:43:02.559Z,9.700
2023-05-01T08:44:02.655Z,10.400
2023-05-01T08:45:02.832Z,9.900
2023-05-01T08:46:03.004Z,9.500
2023-05-01T08:47:03.720Z,9.500
2023-05-01T08:48:03.140Z,8.800
2023-05-01T08:49:02.680Z,9.300
2023-05-01T08:50:02.763Z,9.600
2023-05-01T08:51:03.120Z,8.900
2023-05-01T08:52:03.368Z,8.900
2023-05-01T08:53:02.496Z,9.400
2023-05-01T08:54:02.627Z,9.400
2023-05-01T08:55:03.036Z,9.800
2023-05-01T08:56:03.295Z,9.000
2023-05-01T08:57:02.599Z,8.600
2023-05-01T08:58:02.816Z,9.200
2023-05-01T08:59:02.975Z,8.900
2023-05-01T09:00:03.236Z,8.000
2023-05-01T09:01:02.355Z,8.500
2023-05-01T09:02:03.302Z,8.300
2023-05-01T09:03:02.933Z,9.100
2023-05-01T09:04:03.754Z,8.700
2023-05-01T09:05:03.163Z,8.400
2023-05-01T09:06:02.342Z,7.900
2023-05-01T09:07:02.958Z,9.100
2023-05-01T09:08:03.248Z,8.500
2023-05-01T09:09:02.397Z,8.300
2023-05-01T09:10:02.647Z,9.000
2023-05-01T09:11:02.947Z,9.600
2023-05-01T09:12:03.211Z,9.300
2023-05-01T09:13:02.448Z,8.900
2023-05-01T09:14:02.673Z,8.400
2023-05-01T09:15:02.743Z,8.800
2023-05-01T09:16:03.126Z,9.500
2023-05-01T09:17:02.340Z,9.200
2023-05-01T09:18:05.392Z,9.300
2023-05-01T09:19:02.628Z,8.800
2023-05-01T09:20:02.878Z,8.900
2023-05-01T09:21:03.009Z,8.800
2023-05-01T09:22:03.228Z,9.200
2023-05-01T09:23:02.353Z,9.600
2023-05-01T09:24:02.501Z,9.400
2023-05-01T09:25:02.845Z,9.500
2023-05-01T09:26:03.023Z,9.200
2023-05-01T09:27:03.255Z,9.200
2023-05-01T09:28:02.431Z,9.400
2023-05-01T09:29:02.667Z,9.800
2023-05-01T09:30:02.829Z,9.600
2023-05-01T09:31:03.020Z,9.100
2023-05-01T09:32:03.894Z,9.100
2023-05-01T09:33:03.275Z,9.200
2023-05-01T09:34:02.577Z,9.200
2023-05-01T09:35:02.664Z,8.400
2023-05-01T09:36:02.934Z,9.500
2023-05-01T09:37:03.121Z,9.300
2023-05-01T09:38:05.248Z,10.700
2023-05-01T09:40:02.526Z,9.100
2023-05-01T09:41:02.740Z,8.800
2023-05-01T09:42:03.026Z,9.100
2023-05-01T09:43:03.256Z,10.300
2023-05-01T09:44:02.407Z,9.000
2023-05-01T09:45:02.654Z,9.600
2023-05-01T09:46:02.944Z,9.300
2023-05-01T09:47:02.287Z,9.300
2023-05-01T09:48:02.643Z,8.900
2023-05-01T09:49:03.031Z,9.400
2023-05-01T09:50:03.429Z,9.400
2023-05-01T09:51:02.592Z,9.600
2023-05-01T09:52:02.808Z,9.500
2023-05-01T09:53:03.099Z,9.800
2023-05-01T09:54:02.370Z,9.400
2023-05-01T09:55:02.603Z,9.600
2023-05-01T09:56:02.748Z,9.400
2023-05-01T09:57:02.908Z,9.800
2023-05-01T09:58:03.138Z,9.100
2023-05-01T09:59:02.469Z,10.100
2023-05-01T10:00:02.805Z,8.800
2023-05-01T10:01:03.304Z,9.500
2023-05-01T10:02:02.855Z,8.800
2023-05-01T10:03:04.444Z,8.800
2023-05-01T10:04:03.805Z,9.400
2023-05-01T10:05:02.984Z,9.400
2023-05-01T10:06:03.318Z,9.400
2023-05-01T10:07:02.794Z,8.800
2023-05-01T10:08:03.201Z,9.300
2023-05-01T10:09:02.318Z,8.700
2023-05-01T10:10:03.869Z,9.600
2023-05-01T10:12:02.493Z,9.100
2023-05-01T10:13:02.780Z,8.700
2023-05-01T10:14:03.017Z,9.000
2023-05-01T10:15:17.596Z,9.700
2023-05-01T10:17:06.511Z,10.500
2023-05-01T10:18:05.966Z,10.700
2023-05-01T10:19:06.227Z,9.400
2023-05-01T10:20:05.568Z,9.300
2023-05-01T10:21:05.781Z,8.900
2023-05-01T10:22:05.984Z,9.200
2023-05-01T10:23:06.526Z,9.500
2023-05-01T10:24:05.680Z,11.400
2023-05-01T10:25:05.883Z,12.000
2023-05-01T10:26:07.394Z,9.900
2023-05-01T10:27:05.575Z,9.700
2023-05-01T10:28:06.151Z,8.800
2023-05-01T10:29:05.429Z,8.600
2023-05-01T10:30:05.770Z,8.100
2023-05-01T10:31:06.107Z,9.500
2023-05-01T10:32:05.553Z,9.000
2023-05-01T10:33:06.128Z,9.100
2023-05-01T10:34:05.560Z,9.500
2023-05-01T10:35:05.736Z,9.100
2023-05-01T10:36:05.971Z,10.400
2023-05-01T10:37:06.254Z,9.700
2023-05-01T10:38:05.516Z,9.600
2023-05-01T10:39:05.748Z,10.100
2023-05-01T10:40:06.235Z,10.000
2023-05-01T10:41:05.452Z,10.000
2023-05-01T10:42:05.715Z,9.700
2023-05-01T10:43:05.964Z,8.700
2023-05-01T10:44:06.312Z,9.800
2023-05-01T10:45:05.425Z,9.500
2023-05-01T10:46:05.807Z,11.500
2023-05-01T10:47:06.510Z,11.500
2023-05-01T10:48:05.812Z,10.900
2023-05-01T10:49:06.044Z,12.400
2023-05-01T10:50:06.432Z,12.700
2023-05-01T10:51:05.664Z,10.300
2023-05-01T10:52:05.785Z,10.400
2023-05-01T10:53:06.041Z,9.800
2023-05-01T10:54:06.220Z,10.200
2023-05-01T10:55:05.535Z,10.300
2023-05-01T10:56:05.771Z,11.700
2023-05-01T10:57:05.927Z,10.500
2023-05-01T10:58:06.114Z,11.000
2023-05-01T10:59:05.345Z,9.900
2023-05-01T11:00:05.599Z,10.100
2023-05-01T11:01:05.755Z,10.500
2023-05-01T11:02:06.206Z,10.800
2023-05-01T11:03:05.748Z,11.700
2023-05-01T11:04:06.017Z,13.100
2023-05-01T11:05:06.505Z,12.900
2023-05-01T11:06:05.951Z,15.300
2023-05-01T11:08:06.014Z,16.000
2023-05-01T11:09:06.274Z,15.000
2023-05-01T11:10:05.359Z,16.700
2023-05-01T11:11:05.485Z,16.900
2023-05-01T11:12:05.922Z,16.300
2023-05-01T11:13:06.138Z,16.900
2023-05-01T11:14:05.381Z,17.200
2023-05-01T11:15:05.719Z,16.700
2023-05-01T11:16:06.249Z,17.300
2023-05-01T11:17:05.945Z,16.500
2023-05-01T11:18:06.600Z,16.600
2023-05-01T11:19:05.935Z,17.300
2023-05-01T11:20:06.178Z,18.200
2023-05-01T11:21:05.407Z,17.200
2023-05-01T11:22:05.599Z,17.000
2023-05-01T11:23:05.845Z,18.000
2023-05-01T11:24:06.088Z,18.400
2023-05-01T11:25:06.423Z,18.000
2023-05-01T11:26:05.547Z,18.400
2023-05-01T11:27:07.172Z,17.600
2023-05-01T11:29:05.704Z,18.700
2023-05-01T11:30:05.856Z,18.900
2023-05-01T11:31:06.140Z,18.000
2023-05-01T11:32:06.597Z,17.200
2023-05-01T11:33:07.104Z,18.500
2023-05-01T11:34:06.128Z,19.800
2023-05-01T11:35:06.328Z,18.800
2023-05-01T11:36:06.634Z,20.000
2023-05-01T11:37:06.882Z,18.800
2023-05-01T11:38:07.291Z,19.100
2023-05-01T11:39:06.424Z,19.300
2023-05-01T11:40:06.579Z,20.100
2023-05-01T11:41:06.830Z,19.700
2023-05-01T11:42:07.150Z,20.300
2023-05-01T11:44:06.860Z,19.000
2023-05-01T11:45:07.477Z,19.500
2023-05-01T11:46:06.832Z,19.700
2023-05-01T11:47:07.390Z,19.100
2023-05-01T11:48:06.682Z,18.100
2023-05-01T11:49:07.034Z,19.100
2023-05-01T11:50:07.212Z,19.500
2023-05-01T11:51:06.459Z,19.600
2023-05-01T11:52:06.703Z,21.100
2023-05-01T11:53:07.087Z,19.300
2023-05-01T11:54:07.294Z,20.900
2023-05-01T11:55:06.563Z,20.300
2023-05-01T11:56:19.630Z,20.900
2023-05-01T11:59:09.796Z,21.100
2023-05-01T12:00:10.090Z,20.500
2023-05-01T12:01:09.314Z,20.200
2023-05-01T12:02:09.811Z,20.500
2023-05-01T12:03:10.997Z,19.200
2023-05-01T12:04:10.220Z,21.200
2023-05-01T12:05:10.555Z,20.900
2023-05-01T12:06:09.794Z,21.800
2023-05-01T12:07:10.200Z,22.500
2023-05-01T12:08:09.348Z,21.800
2023-05-01T12:09:09.567Z,21.400
2023-05-01T12:10:09.890Z,21.500
2023-05-01T12:11:10.372Z,21.400
2023-05-01T12:12:10.362Z,21.200
2023-05-01T12:13:09.629Z,21.100
2023-05-01T12:14:09.856Z,21.800
2023-05-01T12:15:10.124Z,22.300
2023-05-01T12:16:09.263Z,20.900
2023-05-01T12:17:09.792Z,20.900
2023-05-01T12:18:10.412Z,22.200
2023-05-01T12:19:10.014Z,21.400
2023-05-01T12:20:10.309Z,21.800
2023-05-01T12:21:09.766Z,21.400
2023-05-01T12:22:10.027Z,20.000
2023-05-01T12:23:10.350Z,20.600
2023-05-01T12:24:09.503Z,21.700
2023-05-01T12:25:09.843Z,20.000
2023-05-01T12:26:10.139Z,21.500
2023-05-01T12:27:10.367Z,21.500
2023-05-01T12:28:09.587Z,20.600
2023-05-01T12:29:09.862Z,22.000
2023-05-01T12:30:10.159Z,21.100
2023-05-01T12:31:09.457Z,20.800
2023-05-01T12:32:10.189Z,20.500
2023-05-01T12:33:09.646Z,20.900
2023-05-01T12:34:09.926Z,22.000
2023-05-01T12:35:10.229Z,20.200
2023-05-01T12:36:09.400Z,21.300
2023-05-01T12:37:09.519Z,22.000
2023-05-01T12:38:09.790Z,21.900
2023-05-01T12:39:10.020Z,22.200
2023-05-01T12:40:10.188Z,22.100
2023-05-01T12:41:09.461Z,21.800
2023-05-01T12:42:09.705Z,21.000
2023-05-01T12:43:09.892Z,21.200
2023-05-01T12:44:10.085Z,20.200
2023-05-01T12:45:10.268Z,20.100
2023-05-01T12:46:09.795Z,19.800
2023-05-01T12:47:10.440Z,20.600
2023-05-01T12:48:09.681Z,21.800
2023-05-01T12:49:10.320Z,22.200
2023-05-01T12:50:09.630Z,20.700
2023-05-01T12:51:09.812Z,18.800
2023-05-01T12:52:10.063Z,20.300
2023-05-01T12:53:10.293Z,19.200
2023-05-01T12:54:09.479Z,21.000
2023-05-01T12:55:09.660Z,20.900
2023-05-01T12:56:09.854Z,20.900
2023-05-01T12:57:10.159Z,21.000
2023-05-01T12:58:09.303Z,21.100
2023-05-01T12:59:09.602Z,21.100